Terminal Aerodrome Forecast
Issued by NWS

Home | Current Version | Previous Version | Text Only | Print | Product List | Glossary On
Versions: 1 2 3 4 5 6 7 8 9 10 11 12
000
FTUS45 KRIW 161726
TAFWRL
TAF
KWRL 161726Z 1618/1718 VRB05KT P6SM SKC
     FM170900 VRB03KT P6SM VCFG SKC
     FM171100 VRB03KT 2SM BR SCT003
     FM171700 VRB03KT P6SM VCFG FEW005=

USA.gov is the U.S. government's official web portal to all federal, state and local government web resources and services.